UAL558 KBOS-KEWR
Flight info
| Callsign | UAL558 |
|---|---|
| Flight time | 0h 51m |
| Altitude | 16000 |
| Route | PATSS7 PATSS NELIE FLOSI4 |
| Aircraft | B739/M-SDE2E3FGHIRWXY/LB1 |
Departure
| Time | 2026-05-07 00:25 |
|---|---|
| Airport | Boston Logan International Airport (KBOS) |
Arrival
| Time | 2026-05-07 01:17 |
|---|---|
| Airport | Newark Liberty International Airport (KEWR) |
| Time | Latitude | Longitude | Altitude | Speed | Heading |
|---|---|---|---|---|---|
| 2026-05-06 23:44 | 42.36263 | -71.01718 | 29 ft | 0 kts | 301° |
| 2026-05-07 00:11 | 42.36263 | -71.01716 | 28 ft | 2 kts | 301° |
| 2026-05-07 00:11 | 42.36252 | -71.01685 | 26 ft | 4 kts | 279° |
| 2026-05-07 00:11 | 42.36249 | -71.01657 | 24 ft | 4 kts | 280° |
| 2026-05-07 00:12 | 42.36243 | -71.01622 | 24 ft | 4 kts | 288° |
| 2026-05-07 00:12 | 42.36235 | -71.01592 | 30 ft | 2 kts | 289° |
| 2026-05-07 00:12 | 42.36226 | -71.01561 | 24 ft | 4 kts | 290° |
| 2026-05-07 00:12 | 42.36218 | -71.01529 | 24 ft | 4 kts | 287° |
| 2026-05-07 00:13 | 42.36215 | -71.01497 | 24 ft | 3 kts | 236° |
| 2026-05-07 00:13 | 42.36217 | -71.01491 | 24 ft | 0 kts | 211° |
| 2026-05-07 00:14 | 42.36214 | -71.01494 | 24 ft | 5 kts | 211° |
| 2026-05-07 00:14 | 42.36168 | -71.01527 | 24 ft | 1 kts | 184° |
| 2026-05-07 00:14 | 42.36166 | -71.01510 | 26 ft | 4 kts | 91° |
| 2026-05-07 00:15 | 42.36186 | -71.01425 | 27 ft | 11 kts | 43° |
| 2026-05-07 00:15 | 42.36252 | -71.01375 | 26 ft | 11 kts | 22° |
| 2026-05-07 00:15 | 42.36322 | -71.01341 | 29 ft | 11 kts | 18° |
| 2026-05-07 00:15 | 42.36390 | -71.01309 | 25 ft | 10 kts | 19° |
| 2026-05-07 00:16 | 42.36475 | -71.01269 | 28 ft | 17 kts | 19° |
| 2026-05-07 00:16 | 42.36596 | -71.01211 | 29 ft | 18 kts | 19° |
| 2026-05-07 00:16 | 42.36714 | -71.01155 | 28 ft | 18 kts | 16° |
| 2026-05-07 00:16 | 42.36825 | -71.01201 | 24 ft | 17 kts | 330° |
| 2026-05-07 00:17 | 42.36931 | -71.01170 | 28 ft | 16 kts | 37° |
| 2026-05-07 00:17 | 42.37024 | -71.01088 | 24 ft | 16 kts | 27° |
| 2026-05-07 00:17 | 42.37121 | -71.01023 | 27 ft | 15 kts | 24° |
| 2026-05-07 00:17 | 42.37215 | -71.00966 | 29 ft | 15 kts | 24° |
| 2026-05-07 00:18 | 42.37252 | -71.00943 | 24 ft | 0 kts | 24° |
| 2026-05-07 00:18 | 42.37310 | -71.00908 | 26 ft | 14 kts | 24° |
| 2026-05-07 00:18 | 42.37402 | -71.00859 | 29 ft | 14 kts | 20° |
| 2026-05-07 00:18 | 42.37490 | -71.00816 | 28 ft | 13 kts | 20° |
| 2026-05-07 00:19 | 42.37575 | -71.00775 | 28 ft | 13 kts | 19° |
| 2026-05-07 00:19 | 42.37658 | -71.00735 | 28 ft | 12 kts | 19° |
| 2026-05-07 00:19 | 42.37739 | -71.00695 | 27 ft | 12 kts | 18° |
| 2026-05-07 00:19 | 42.37798 | -71.00667 | 29 ft | 0 kts | 19° |
| 2026-05-07 00:21 | 42.37815 | -71.00657 | 24 ft | 4 kts | 31° |
| 2026-05-07 00:22 | 42.37824 | -71.00647 | 24 ft | 0 kts | 44° |
| 2026-05-07 00:22 | 42.37840 | -71.00603 | 25 ft | 10 kts | 84° |
| 2026-05-07 00:23 | 42.37807 | -71.00487 | 25 ft | 21 kts | 130° |
| 2026-05-07 00:23 | 42.37737 | -71.00475 | 24 ft | 2 kts | 218° |
| 2026-05-07 00:23 | 42.37729 | -71.00486 | 26 ft | 2 kts | 224° |
| 2026-05-07 00:23 | 42.37720 | -71.00495 | 24 ft | 0 kts | 208° |
| 2026-05-07 00:24 | 42.37635 | -71.00542 | 25 ft | 42 kts | 201° |
| 2026-05-07 00:25 | 42.37151 | -71.00777 | 26 ft | 104 kts | 200° |
| 2026-05-07 00:25 | 42.36315 | -71.01205 | 60 ft | 148 kts | 203° |
| 2026-05-07 00:25 | 42.35327 | -71.01692 | 636 ft | 146 kts | 200° |
| 2026-05-07 00:25 | 42.34324 | -71.02074 | 1194 ft | 152 kts | 193° |
| 2026-05-07 00:26 | 42.33281 | -71.01829 | 1695 ft | 165 kts | 143° |
| 2026-05-07 00:26 | 42.32589 | -71.00477 | 2038 ft | 190 kts | 128° |
| 2026-05-07 00:26 | 42.31830 | -70.98910 | 2290 ft | 206 kts | 136° |
| 2026-05-07 00:26 | 42.30991 | -70.97270 | 2889 ft | 220 kts | 119° |
| 2026-05-07 00:27 | 42.30922 | -70.95078 | 3315 ft | 258 kts | 80° |
| 2026-05-07 00:27 | 42.31496 | -70.92647 | 3606 ft | 283 kts | 82° |
| 2026-05-07 00:27 | 42.31944 | -70.90020 | 4230 ft | 290 kts | 84° |
| 2026-05-07 00:27 | 42.32346 | -70.87310 | 4920 ft | 298 kts | 85° |
| 2026-05-07 00:28 | 42.32737 | -70.84529 | 5571 ft | 304 kts | 85° |
| 2026-05-07 00:28 | 42.33081 | -70.81699 | 6393 ft | 305 kts | 92° |
| 2026-05-07 00:28 | 42.32810 | -70.78926 | 7202 ft | 292 kts | 116° |
| 2026-05-07 00:28 | 42.32008 | -70.76449 | 7878 ft | 289 kts | 126° |
| 2026-05-07 00:29 | 42.31007 | -70.74134 | 8621 ft | 287 kts | 131° |
| 2026-05-07 00:29 | 42.29635 | -70.72295 | 9314 ft | 271 kts | 160° |
| 2026-05-07 00:30 | 42.24161 | -70.72136 | 11038 ft | 275 kts | 196° |
| 2026-05-07 00:30 | 42.22271 | -70.72623 | 11719 ft | 277 kts | 199° |
| 2026-05-07 00:30 | 42.20531 | -70.73619 | 12345 ft | 270 kts | 221° |
| 2026-05-07 00:30 | 42.19196 | -70.75374 | 13011 ft | 271 kts | 233° |
| 2026-05-07 00:31 | 42.18237 | -70.77665 | 13162 ft | 293 kts | 251° |
| 2026-05-07 00:31 | 42.17762 | -70.80439 | 13331 ft | 314 kts | 257° |
| 2026-05-07 00:31 | 42.17373 | -70.83437 | 13454 ft | 333 kts | 258° |
| 2026-05-07 00:31 | 42.16971 | -70.86593 | 13596 ft | 350 kts | 258° |
| 2026-05-07 00:32 | 42.16536 | -70.89885 | 13851 ft | 361 kts | 257° |
| 2026-05-07 00:32 | 42.16083 | -70.93244 | 14307 ft | 366 kts | 257° |
| 2026-05-07 00:32 | 42.15676 | -70.96638 | 14846 ft | 369 kts | 259° |
| 2026-05-07 00:32 | 42.15356 | -71.00084 | 15400 ft | 372 kts | 261° |
| 2026-05-07 00:33 | 42.15063 | -71.03560 | 15918 ft | 374 kts | 261° |
| 2026-05-07 00:33 | 42.14771 | -71.07058 | 16000 ft | 378 kts | 261° |
| 2026-05-07 00:33 | 42.14470 | -71.10606 | 16015 ft | 383 kts | 261° |
| 2026-05-07 00:33 | 42.14161 | -71.14170 | 16012 ft | 382 kts | 260° |
| 2026-05-07 00:34 | 42.13848 | -71.17718 | 16016 ft | 381 kts | 260° |
| 2026-05-07 00:34 | 42.13531 | -71.21258 | 16021 ft | 381 kts | 260° |
| 2026-05-07 00:34 | 42.13210 | -71.24802 | 16023 ft | 381 kts | 260° |
| 2026-05-07 00:34 | 42.12891 | -71.28301 | 16020 ft | 381 kts | 260° |
| 2026-05-07 00:35 | 42.12568 | -71.31840 | 16019 ft | 381 kts | 260° |
| 2026-05-07 00:35 | 42.12242 | -71.35384 | 16017 ft | 381 kts | 260° |
| 2026-05-07 00:35 | 42.11915 | -71.38927 | 16016 ft | 381 kts | 260° |
| 2026-05-07 00:35 | 42.11588 | -71.42473 | 16020 ft | 381 kts | 260° |
| 2026-05-07 00:36 | 42.11258 | -71.46021 | 16024 ft | 382 kts | 260° |
| 2026-05-07 00:36 | 42.10927 | -71.49567 | 16018 ft | 382 kts | 260° |
| 2026-05-07 00:36 | 42.10596 | -71.53114 | 16018 ft | 382 kts | 260° |
| 2026-05-07 00:36 | 42.10263 | -71.56670 | 16020 ft | 382 kts | 260° |
| 2026-05-07 00:37 | 42.09928 | -71.60223 | 16033 ft | 382 kts | 260° |
| 2026-05-07 00:37 | 42.09595 | -71.63772 | 16024 ft | 383 kts | 260° |
| 2026-05-07 00:37 | 42.09258 | -71.67329 | 16017 ft | 383 kts | 259° |
| 2026-05-07 00:37 | 42.08920 | -71.70879 | 16019 ft | 382 kts | 259° |
| 2026-05-07 00:38 | 42.08495 | -71.74415 | 16019 ft | 381 kts | 257° |
| 2026-05-07 00:38 | 42.07985 | -71.77914 | 16012 ft | 381 kts | 256° |
| 2026-05-07 00:38 | 42.07448 | -71.81406 | 16011 ft | 381 kts | 256° |
| 2026-05-07 00:38 | 42.06907 | -71.84895 | 16016 ft | 381 kts | 256° |
| 2026-05-07 00:39 | 42.06369 | -71.88392 | 16005 ft | 382 kts | 256° |
| 2026-05-07 00:39 | 42.05837 | -71.91894 | 16007 ft | 381 kts | 256° |
| 2026-05-07 00:39 | 42.05316 | -71.95349 | 16005 ft | 381 kts | 256° |
| 2026-05-07 00:39 | 42.04791 | -71.98837 | 16010 ft | 381 kts | 256° |
| 2026-05-07 00:40 | 42.04268 | -72.02328 | 16014 ft | 381 kts | 256° |
| 2026-05-07 00:40 | 42.03744 | -72.05818 | 16009 ft | 381 kts | 256° |
| 2026-05-07 00:40 | 42.03220 | -72.09309 | 16013 ft | 381 kts | 256° |
| 2026-05-07 00:40 | 42.02694 | -72.12808 | 16014 ft | 381 kts | 256° |
| 2026-05-07 00:41 | 42.02168 | -72.16301 | 16015 ft | 381 kts | 256° |
| 2026-05-07 00:41 | 42.01642 | -72.19793 | 15999 ft | 381 kts | 255° |
| 2026-05-07 00:41 | 42.01109 | -72.23278 | 16014 ft | 380 kts | 256° |
| 2026-05-07 00:41 | 42.00582 | -72.26778 | 16032 ft | 386 kts | 256° |
| 2026-05-07 00:42 | 42.00044 | -72.30311 | 16565 ft | 385 kts | 256° |
| 2026-05-07 00:42 | 41.99506 | -72.33838 | 17168 ft | 385 kts | 256° |
| 2026-05-07 00:42 | 41.98969 | -72.37359 | 17722 ft | 384 kts | 256° |
| 2026-05-07 00:42 | 41.98428 | -72.40884 | 17790 ft | 389 kts | 256° |
| 2026-05-07 00:43 | 41.97877 | -72.44471 | 17798 ft | 393 kts | 256° |
| 2026-05-07 00:43 | 41.97324 | -72.48065 | 17793 ft | 391 kts | 256° |
| 2026-05-07 00:43 | 41.96775 | -72.51635 | 17803 ft | 391 kts | 256° |
| 2026-05-07 00:43 | 41.96224 | -72.55210 | 17806 ft | 389 kts | 256° |
| 2026-05-07 00:44 | 41.95681 | -72.58729 | 17551 ft | 381 kts | 256° |
| 2026-05-07 00:44 | 41.95148 | -72.62175 | 17018 ft | 375 kts | 256° |
| 2026-05-07 00:44 | 41.94620 | -72.65571 | 16415 ft | 368 kts | 256° |
| 2026-05-07 00:44 | 41.94085 | -72.68914 | 15787 ft | 363 kts | 254° |
| 2026-05-07 00:45 | 41.93386 | -72.72082 | 15702 ft | 346 kts | 251° |
| 2026-05-07 00:45 | 41.92653 | -72.75155 | 15690 ft | 352 kts | 251° |
| 2026-05-07 00:45 | 41.91885 | -72.78332 | 15533 ft | 362 kts | 250° |
| 2026-05-07 00:45 | 41.91104 | -72.81553 | 15382 ft | 361 kts | 251° |
| 2026-05-07 00:46 | 41.90335 | -72.84738 | 15228 ft | 358 kts | 251° |
| 2026-05-07 00:46 | 41.89575 | -72.87896 | 15051 ft | 354 kts | 251° |
| 2026-05-07 00:46 | 41.88821 | -72.91034 | 14876 ft | 355 kts | 251° |
| 2026-05-07 00:46 | 41.88064 | -72.94192 | 14732 ft | 358 kts | 251° |
| 2026-05-07 00:47 | 41.87299 | -72.97374 | 14565 ft | 357 kts | 251° |
| 2026-05-07 00:47 | 41.86538 | -73.00542 | 14406 ft | 356 kts | 251° |
| 2026-05-07 00:47 | 41.85778 | -73.03694 | 14270 ft | 354 kts | 251° |
| 2026-05-07 00:47 | 41.85019 | -73.06837 | 14105 ft | 353 kts | 251° |
| 2026-05-07 00:48 | 41.84264 | -73.09956 | 13961 ft | 352 kts | 251° |
| 2026-05-07 00:48 | 41.83508 | -73.13086 | 13797 ft | 352 kts | 251° |
| 2026-05-07 00:48 | 41.82754 | -73.16207 | 13645 ft | 352 kts | 251° |
| 2026-05-07 00:48 | 41.81999 | -73.19319 | 13489 ft | 351 kts | 251° |
| 2026-05-07 00:49 | 41.81247 | -73.22424 | 13339 ft | 350 kts | 251° |
| 2026-05-07 00:49 | 41.80496 | -73.25521 | 13190 ft | 349 kts | 251° |
| 2026-05-07 00:49 | 41.79747 | -73.28601 | 13041 ft | 346 kts | 251° |
| 2026-05-07 00:49 | 41.79015 | -73.31607 | 13068 ft | 330 kts | 251° |
| 2026-05-07 00:50 | 41.78320 | -73.34464 | 13061 ft | 315 kts | 251° |
| 2026-05-07 00:50 | 41.77646 | -73.37219 | 13071 ft | 310 kts | 251° |
| 2026-05-07 00:50 | 41.76977 | -73.39955 | 13085 ft | 309 kts | 251° |
| 2026-05-07 00:50 | 41.76308 | -73.42688 | 13084 ft | 310 kts | 251° |
| 2026-05-07 00:51 | 41.75636 | -73.45429 | 13077 ft | 310 kts | 251° |
| 2026-05-07 00:51 | 41.74962 | -73.48171 | 13031 ft | 309 kts | 251° |
| 2026-05-07 00:51 | 41.74287 | -73.50922 | 12406 ft | 315 kts | 251° |
| 2026-05-07 00:51 | 41.73597 | -73.53728 | 11955 ft | 314 kts | 251° |
| 2026-05-07 00:52 | 41.72902 | -73.56550 | 11699 ft | 327 kts | 252° |
| 2026-05-07 00:52 | 41.72175 | -73.59500 | 11457 ft | 339 kts | 252° |
| 2026-05-07 00:52 | 41.71434 | -73.62506 | 11211 ft | 341 kts | 252° |
| 2026-05-07 00:52 | 41.70688 | -73.65521 | 10959 ft | 341 kts | 252° |
| 2026-05-07 00:53 | 41.69944 | -73.68535 | 10687 ft | 340 kts | 252° |
| 2026-05-07 00:53 | 41.69229 | -73.71554 | 10461 ft | 340 kts | 252° |
| 2026-05-07 00:53 | 41.68479 | -73.74519 | 10205 ft | 341 kts | 252° |
| 2026-05-07 00:53 | 41.67715 | -73.77544 | 9964 ft | 342 kts | 252° |
| 2026-05-07 00:54 | 41.66965 | -73.80533 | 9703 ft | 337 kts | 252° |
| 2026-05-07 00:54 | 41.66250 | -73.83418 | 9429 ft | 315 kts | 252° |
| 2026-05-07 00:54 | 41.65605 | -73.86122 | 9155 ft | 297 kts | 253° |
| 2026-05-07 00:54 | 41.65005 | -73.88674 | 9026 ft | 277 kts | 253° |
| 2026-05-07 00:55 | 41.64441 | -73.91075 | 8990 ft | 264 kts | 253° |
| 2026-05-07 00:55 | 41.63905 | -73.93353 | 8978 ft | 250 kts | 253° |
| 2026-05-07 00:55 | 41.63395 | -73.95522 | 8975 ft | 241 kts | 252° |
| 2026-05-07 00:55 | 41.62890 | -73.97655 | 8985 ft | 243 kts | 253° |
| 2026-05-07 00:56 | 41.62373 | -73.99840 | 9002 ft | 250 kts | 253° |
| 2026-05-07 00:56 | 41.62018 | -74.01340 | 9004 ft | 252 kts | 253° |
| 2026-05-07 00:56 | 41.61487 | -74.03577 | 9001 ft | 254 kts | 253° |
| 2026-05-07 00:56 | 41.60948 | -74.05850 | 9022 ft | 265 kts | 253° |
| 2026-05-07 00:57 | 41.60396 | -74.08171 | 9001 ft | 258 kts | 253° |
| 2026-05-07 00:57 | 41.59861 | -74.10415 | 8979 ft | 250 kts | 253° |
| 2026-05-07 00:57 | 41.59333 | -74.12626 | 8850 ft | 249 kts | 253° |
| 2026-05-07 00:57 | 41.58808 | -74.14823 | 8765 ft | 249 kts | 253° |
| 2026-05-07 00:58 | 41.58280 | -74.17027 | 8653 ft | 249 kts | 253° |
| 2026-05-07 00:58 | 41.57752 | -74.19232 | 8536 ft | 249 kts | 253° |
| 2026-05-07 00:58 | 41.57227 | -74.21439 | 8436 ft | 249 kts | 253° |
| 2026-05-07 00:58 | 41.56699 | -74.23646 | 8327 ft | 250 kts | 253° |
| 2026-05-07 00:59 | 41.55636 | -74.28067 | 8105 ft | 250 kts | 253° |
| 2026-05-07 00:59 | 41.55106 | -74.30275 | 7993 ft | 250 kts | 253° |
| 2026-05-07 00:59 | 41.54367 | -74.32369 | 7853 ft | 253 kts | 232° |
| 2026-05-07 01:00 | 41.53020 | -74.33887 | 7774 ft | 256 kts | 214° |
| 2026-05-07 01:00 | 41.51355 | -74.34801 | 7668 ft | 260 kts | 203° |
| 2026-05-07 01:00 | 41.49625 | -74.35518 | 7558 ft | 261 kts | 202° |
| 2026-05-07 01:00 | 41.47894 | -74.36231 | 7440 ft | 260 kts | 202° |
| 2026-05-07 01:01 | 41.46164 | -74.36967 | 7321 ft | 260 kts | 202° |
| 2026-05-07 01:01 | 41.44448 | -74.37698 | 7199 ft | 258 kts | 202° |
| 2026-05-07 01:01 | 41.42740 | -74.38424 | 7092 ft | 257 kts | 202° |
| 2026-05-07 01:01 | 41.41038 | -74.39151 | 7044 ft | 256 kts | 202° |
| 2026-05-07 01:02 | 41.39345 | -74.39880 | 7045 ft | 255 kts | 202° |
| 2026-05-07 01:02 | 41.37680 | -74.40596 | 7027 ft | 246 kts | 202° |
| 2026-05-07 01:02 | 41.36091 | -74.41275 | 7016 ft | 234 kts | 203° |
| 2026-05-07 01:02 | 41.34582 | -74.41923 | 7021 ft | 223 kts | 204° |
| 2026-05-07 01:03 | 41.33098 | -74.42562 | 7043 ft | 228 kts | 203° |
| 2026-05-07 01:03 | 41.31557 | -74.43231 | 7046 ft | 235 kts | 203° |
| 2026-05-07 01:03 | 41.30013 | -74.43888 | 7057 ft | 236 kts | 203° |
| 2026-05-07 01:03 | 41.28453 | -74.44556 | 7055 ft | 235 kts | 203° |
| 2026-05-07 01:04 | 41.26900 | -74.45221 | 7056 ft | 233 kts | 203° |
| 2026-05-07 01:04 | 41.25358 | -74.45881 | 7052 ft | 232 kts | 203° |
| 2026-05-07 01:04 | 41.23812 | -74.46488 | 7054 ft | 234 kts | 194° |
| 2026-05-07 01:04 | 41.22176 | -74.46249 | 7070 ft | 245 kts | 162° |
| 2026-05-07 01:05 | 41.20779 | -74.44850 | 7085 ft | 262 kts | 131° |
| 2026-05-07 01:05 | 41.19961 | -74.42634 | 7089 ft | 271 kts | 110° |
| 2026-05-07 01:05 | 41.19425 | -74.40220 | 7069 ft | 273 kts | 108° |
| 2026-05-07 01:05 | 41.18920 | -74.37789 | 7070 ft | 274 kts | 108° |
| 2026-05-07 01:06 | 41.18421 | -74.35358 | 7059 ft | 274 kts | 108° |
| 2026-05-07 01:06 | 41.17925 | -74.32921 | 7040 ft | 272 kts | 108° |
| 2026-05-07 01:06 | 41.17433 | -74.30497 | 7039 ft | 272 kts | 108° |
| 2026-05-07 01:06 | 41.16933 | -74.28073 | 7042 ft | 272 kts | 108° |
| 2026-05-07 01:07 | 41.16429 | -74.25649 | 7038 ft | 272 kts | 107° |
| 2026-05-07 01:07 | 41.15896 | -74.23249 | 6976 ft | 269 kts | 117° |
| 2026-05-07 01:07 | 41.14830 | -74.21307 | 6731 ft | 258 kts | 143° |
| 2026-05-07 01:07 | 41.13431 | -74.19770 | 6230 ft | 266 kts | 147° |
| 2026-05-07 01:08 | 41.11982 | -74.18284 | 6098 ft | 259 kts | 147° |
| 2026-05-07 01:08 | 41.10587 | -74.16840 | 6004 ft | 250 kts | 143° |
| 2026-05-07 01:08 | 41.09295 | -74.15406 | 6041 ft | 244 kts | 149° |
| 2026-05-07 01:08 | 41.07938 | -74.14061 | 6064 ft | 242 kts | 148° |
| 2026-05-07 01:09 | 41.06577 | -74.12760 | 6019 ft | 239 kts | 155° |
| 2026-05-07 01:09 | 41.05132 | -74.11688 | 6038 ft | 238 kts | 157° |
| 2026-05-07 01:09 | 41.03698 | -74.10650 | 5984 ft | 229 kts | 158° |
| 2026-05-07 01:09 | 41.02309 | -74.09786 | 5814 ft | 214 kts | 163° |
| 2026-05-07 01:10 | 41.00958 | -74.08997 | 5439 ft | 212 kts | 163° |
| 2026-05-07 01:10 | 40.99610 | -74.08210 | 5137 ft | 208 kts | 163° |
| 2026-05-07 01:10 | 40.98255 | -74.07437 | 4571 ft | 219 kts | 163° |
| 2026-05-07 01:10 | 40.96834 | -74.06649 | 4209 ft | 221 kts | 163° |
| 2026-05-07 01:11 | 40.95418 | -74.05858 | 4105 ft | 222 kts | 163° |
| 2026-05-07 01:11 | 40.93990 | -74.05058 | 4036 ft | 223 kts | 163° |
| 2026-05-07 01:11 | 40.92535 | -74.04494 | 4017 ft | 213 kts | 178° |
| 2026-05-07 01:11 | 40.91066 | -74.04220 | 4003 ft | 212 kts | 178° |
| 2026-05-07 01:12 | 40.89611 | -74.03944 | 3790 ft | 209 kts | 181° |
| 2026-05-07 01:12 | 40.88248 | -74.04396 | 3249 ft | 206 kts | 220° |
| 2026-05-07 01:12 | 40.87067 | -74.05525 | 3197 ft | 217 kts | 211° |
| 2026-05-07 01:12 | 40.85631 | -74.06206 | 3097 ft | 217 kts | 201° |
| 2026-05-07 01:13 | 40.84266 | -74.06912 | 3007 ft | 204 kts | 208° |
| 2026-05-07 01:13 | 40.83004 | -74.07696 | 2840 ft | 200 kts | 209° |
| 2026-05-07 01:13 | 40.81754 | -74.08500 | 2580 ft | 199 kts | 208° |
| 2026-05-07 01:13 | 40.80504 | -74.09297 | 2332 ft | 201 kts | 208° |
| 2026-05-07 01:14 | 40.79232 | -74.10107 | 2063 ft | 202 kts | 207° |
| 2026-05-07 01:14 | 40.77997 | -74.10896 | 1783 ft | 195 kts | 207° |
| 2026-05-07 01:14 | 40.76812 | -74.11652 | 1532 ft | 183 kts | 206° |
| 2026-05-07 01:14 | 40.75687 | -74.12369 | 1289 ft | 172 kts | 205° |
| 2026-05-07 01:15 | 40.74660 | -74.13026 | 1103 ft | 155 kts | 205° |
| 2026-05-07 01:15 | 40.73749 | -74.13606 | 882 ft | 143 kts | 205° |
| 2026-05-07 01:15 | 40.72850 | -74.14180 | 715 ft | 145 kts | 205° |
| 2026-05-07 01:15 | 40.71949 | -74.14755 | 509 ft | 143 kts | 205° |
| 2026-05-07 01:16 | 40.71065 | -74.15320 | 323 ft | 139 kts | 205° |
| 2026-05-07 01:16 | 40.70189 | -74.15878 | 138 ft | 140 kts | 205° |
| 2026-05-07 01:16 | 40.69320 | -74.16432 | 24 ft | 132 kts | 206° |
| 2026-05-07 01:16 | 40.68622 | -74.16878 | 21 ft | 90 kts | 206° |
| 2026-05-07 01:17 | 40.68345 | -74.17078 | 21 ft | 24 kts | 222° |
| 2026-05-07 01:17 | 40.68266 | -74.17183 | 21 ft | 14 kts | 234° |
| 2026-05-07 01:17 | 40.68256 | -74.17296 | 22 ft | 13 kts | 296° |
| 2026-05-07 01:17 | 40.68288 | -74.17310 | 22 ft | 4 kts | 21° |
| 2026-05-07 01:18 | 40.68315 | -74.17292 | 23 ft | 4 kts | 30° |
| 2026-05-07 01:18 | 40.68358 | -74.17264 | 23 ft | 10 kts | 27° |
| 2026-05-07 01:18 | 40.68420 | -74.17247 | 22 ft | 8 kts | 347° |
| 2026-05-07 01:18 | 40.68449 | -74.17273 | 23 ft | 0 kts | 311° |
| 2026-05-07 01:19 | 40.68451 | -74.17278 | 23 ft | 6 kts | 303° |
| 2026-05-07 01:19 | 40.68481 | -74.17339 | 23 ft | 9 kts | 301° |
| 2026-05-07 01:19 | 40.68511 | -74.17413 | 24 ft | 10 kts | 304° |
| 2026-05-07 01:19 | 40.68559 | -74.17481 | 23 ft | 10 kts | 308° |
| 2026-05-07 01:20 | 40.68582 | -74.17565 | 23 ft | 10 kts | 302° |
| 2026-05-07 01:20 | 40.68600 | -74.17645 | 22 ft | 10 kts | 244° |
| 2026-05-07 01:20 | 40.68556 | -74.17709 | 22 ft | 9 kts | 218° |
| 2026-05-07 01:20 | 40.68512 | -74.17768 | 21 ft | 12 kts | 246° |
| 2026-05-07 01:21 | 40.68531 | -74.17885 | 21 ft | 14 kts | 296° |
| 2026-05-07 01:21 | 40.68569 | -74.18004 | 23 ft | 14 kts | 282° |
| 2026-05-07 01:21 | 40.68552 | -74.18116 | 22 ft | 13 kts | 222° |
| 2026-05-07 01:21 | 40.68479 | -74.18183 | 21 ft | 13 kts | 216° |
| 2026-05-07 01:22 | 40.68428 | -74.18230 | 21 ft | 3 kts | 214° |
| 2026-05-07 01:22 | 40.68425 | -74.18233 | 21 ft | 0 kts | 214° |